createdAt,value
2022-08-27T00:00:23.510Z,3.45
2022-08-27T00:02:50.638Z,3.28
2022-08-27T00:05:19.945Z,3.22
2022-08-27T00:07:47.646Z,3.75
2022-08-27T00:10:23.785Z,3.55
2022-08-27T00:12:51.267Z,3.42
2022-08-27T00:15:20.065Z,3.60
2022-08-27T00:17:47.544Z,3.30
2022-08-27T00:20:18.040Z,3.28
2022-08-27T00:22:46.598Z,3.40
2022-08-27T00:25:14.291Z,3.50
2022-08-27T00:27:41.615Z,3.55
2022-08-27T00:30:12.819Z,3.30
2022-08-27T00:32:40.291Z,3.22
2022-08-27T00:35:09.251Z,3.08
2022-08-27T00:37:36.750Z,3.70
2022-08-27T00:40:07.368Z,3.38
2022-08-27T00:42:34.621Z,3.28
2022-08-27T00:45:02.152Z,3.30
2022-08-27T00:47:31.835Z,3.38
2022-08-27T00:50:05.402Z,3.35
2022-08-27T00:52:35.216Z,3.20
2022-08-27T00:55:08.367Z,3.40
2022-08-27T00:57:37.899Z,3.25
2022-08-27T01:00:08.372Z,3.13
2022-08-27T01:02:35.868Z,3.25
2022-08-27T01:05:08.947Z,3.00
2022-08-27T01:07:39.128Z,3.33
2022-08-27T01:10:12.309Z,3.38
2022-08-27T01:12:39.687Z,2.97
2022-08-27T01:15:12.910Z,3.10
2022-08-27T01:17:44.632Z,3.38
2022-08-27T01:20:17.650Z,3.45
2022-08-27T01:22:54.037Z,3.20
2022-08-27T01:25:23.556Z,2.97
2022-08-27T01:27:51.593Z,2.92
2022-08-27T01:30:21.200Z,3.08
2022-08-27T01:32:50.357Z,3.10
2022-08-27T01:35:18.609Z,3.20
2022-08-27T01:37:48.729Z,3.30
2022-08-27T01:40:17.440Z,3.03
2022-08-27T01:42:48.402Z,3.30
2022-08-27T01:45:18.694Z,2.90
2022-08-27T01:47:46.155Z,2.97
2022-08-27T01:50:17.411Z,2.92
2022-08-27T01:52:45.385Z,3.25
2022-08-27T01:55:15.490Z,3.10
2022-08-27T01:57:43.240Z,2.92
2022-08-27T02:00:15.222Z,3.00
2022-08-27T02:02:43.430Z,3.55
2022-08-27T02:05:11.724Z,2.92
2022-08-27T02:07:39.173Z,3.13
2022-08-27T02:10:09.142Z,2.90
2022-08-27T02:12:36.449Z,3.30
2022-08-27T02:15:05.006Z,3.05
2022-08-27T02:17:33.687Z,3.00
2022-08-27T02:20:00.991Z,3.10
2022-08-27T02:22:28.415Z,3.08
2022-08-27T02:24:55.595Z,2.70
2022-08-27T02:27:22.756Z,2.95
2022-08-27T02:29:49.985Z,2.88
2022-08-27T02:32:17.766Z,3.03
2022-08-27T02:35:01.192Z,2.97
2022-08-27T02:37:29.131Z,2.80
2022-08-27T02:39:56.419Z,3.20
2022-08-27T02:42:23.611Z,2.97
2022-08-27T02:44:51.074Z,3.17
2022-08-27T02:47:18.221Z,3.10
2022-08-27T02:49:45.387Z,3.13
2022-08-27T02:52:13.909Z,3.38
2022-08-27T02:54:41.404Z,2.88
2022-08-27T02:57:08.839Z,2.97
2022-08-27T02:59:36.759Z,3.20
2022-08-27T03:02:04.742Z,3.03
2022-08-27T03:04:31.948Z,2.67
2022-08-27T03:06:59.148Z,2.80
2022-08-27T03:09:27.765Z,3.20
2022-08-27T03:11:54.931Z,3.35
2022-08-27T03:14:22.285Z,3.00
2022-08-27T03:16:49.471Z,3.10
2022-08-27T03:19:23.648Z,3.20
2022-08-27T03:21:54.579Z,2.80
2022-08-27T03:24:22.162Z,2.97
2022-08-27T03:26:52.486Z,3.20
2022-08-27T03:29:21.118Z,2.95
2022-08-27T03:31:48.303Z,2.78
2022-08-27T03:34:19.850Z,2.97
2022-08-27T03:36:47.235Z,3.15
2022-08-27T03:39:14.426Z,2.90
2022-08-27T03:41:55.369Z,2.70
2022-08-27T03:44:24.558Z,2.88
2022-08-27T03:46:52.510Z,2.90
2022-08-27T03:49:21.639Z,2.63
2022-08-27T03:51:50.137Z,2.70
2022-08-27T03:54:17.434Z,2.60
2022-08-27T03:56:44.737Z,3.08
2022-08-27T03:59:11.903Z,2.92
2022-08-27T04:01:40.495Z,3.10
2022-08-27T04:04:07.715Z,3.13
2022-08-27T04:06:35.290Z,2.63
2022-08-27T04:09:03.555Z,2.95
2022-08-27T04:11:30.742Z,2.88
2022-08-27T04:13:57.889Z,2.63
2022-08-27T04:16:25.100Z,2.78
2022-08-27T04:18:54.596Z,3.15
2022-08-27T04:21:21.796Z,2.97
2022-08-27T04:23:49.138Z,2.53
2022-08-27T04:26:16.525Z,2.80
2022-08-27T04:28:48.539Z,2.80
2022-08-27T04:31:16.281Z,2.80
2022-08-27T04:33:51.279Z,2.75
2022-08-27T04:36:20.684Z,2.70
2022-08-27T04:38:47.971Z,2.83
2022-08-27T04:41:15.351Z,2.78
2022-08-27T04:43:42.619Z,2.65
2022-08-27T04:46:09.808Z,2.70
2022-08-27T04:48:37.149Z,2.83
2022-08-27T04:51:05.977Z,2.72
2022-08-27T04:53:35.325Z,2.65
2022-08-27T04:56:02.932Z,2.60
2022-08-27T04:58:30.070Z,2.55
2022-08-27T05:00:58.035Z,2.80
2022-08-27T05:03:25.304Z,2.78
2022-08-27T05:05:53.750Z,2.70
2022-08-27T05:08:21.203Z,3.05
2022-08-27T05:10:51.173Z,2.92
2022-08-27T05:13:20.286Z,2.88
2022-08-27T05:15:48.116Z,2.72
2022-08-27T05:18:15.371Z,2.95
2022-08-27T05:20:44.614Z,2.75
2022-08-27T05:23:11.903Z,2.90
2022-08-27T05:25:41.072Z,2.90
2022-08-27T05:28:10.243Z,2.83
2022-08-27T05:30:39.099Z,2.95
2022-08-27T05:33:06.757Z,2.80
2022-08-27T05:35:40.559Z,2.45
2022-08-27T05:40:35.165Z,2.70
2022-08-27T05:43:02.873Z,2.58
2022-08-27T05:45:31.529Z,2.80
2022-08-27T05:47:58.699Z,2.80
2022-08-27T05:50:26.029Z,2.80
2022-08-27T05:52:53.634Z,2.63
2022-08-27T05:55:20.779Z,2.72
2022-08-27T05:57:47.983Z,2.88
2022-08-27T06:00:15.736Z,2.83
2022-08-27T06:02:44.688Z,2.60
2022-08-27T06:05:11.913Z,2.80
2022-08-27T06:07:39.082Z,2.70
2022-08-27T06:10:07.442Z,2.70
2022-08-27T06:12:36.051Z,2.70
2022-08-27T06:15:03.864Z,2.70
2022-08-27T06:17:31.237Z,2.50
2022-08-27T06:19:59.765Z,2.60
2022-08-27T06:22:26.978Z,2.80
2022-08-27T06:24:54.247Z,2.75
2022-08-27T06:27:21.388Z,2.75
2022-08-27T06:29:48.574Z,2.83
2022-08-27T06:32:15.882Z,2.75
2022-08-27T06:34:43.069Z,2.75
2022-08-27T06:37:11.544Z,2.80
2022-08-27T06:39:38.977Z,2.60
2022-08-27T06:42:06.646Z,2.83
2022-08-27T06:44:34.072Z,2.83
2022-08-27T06:47:01.208Z,2.55
2022-08-27T06:49:28.369Z,2.67
2022-08-27T06:51:55.569Z,2.53
2022-08-27T06:54:24.114Z,2.70
2022-08-27T06:56:51.305Z,2.78
2022-08-27T06:59:19.223Z,2.50
2022-08-27T07:01:49.671Z,2.97
2022-08-27T07:04:20.496Z,3.00
2022-08-27T07:06:47.988Z,2.85
2022-08-27T07:09:15.540Z,2.63
2022-08-27T07:11:44.074Z,2.65
2022-08-27T07:14:11.320Z,2.72
2022-08-27T07:16:38.853Z,2.65
2022-08-27T07:19:08.169Z,2.90
2022-08-27T07:21:36.104Z,2.92
2022-08-27T07:24:04.645Z,2.90
2022-08-27T07:26:34.135Z,3.00
2022-08-27T07:29:03.454Z,2.63
2022-08-27T07:31:30.739Z,2.90
2022-08-27T07:33:57.995Z,2.45
2022-08-27T07:36:25.139Z,2.80
2022-08-27T07:38:53.542Z,3.25
2022-08-27T07:41:30.764Z,4.93
2022-08-27T07:43:58.596Z,5.72
2022-08-27T07:46:27.277Z,7.90
2022-08-27T07:48:54.779Z,6.35
2022-08-27T07:51:23.261Z,5.53
2022-08-27T07:53:51.502Z,5.28
2022-08-27T07:56:18.827Z,7.32
2022-08-27T07:58:46.598Z,7.07
2022-08-27T08:01:14.226Z,7.45
2022-08-27T08:03:42.986Z,6.80
2022-08-27T08:06:13.052Z,6.55
2022-08-27T08:08:40.815Z,6.75
2022-08-27T08:11:12.842Z,6.72
2022-08-27T08:13:40.082Z,6.50
2022-08-27T08:16:07.465Z,6.30
2022-08-27T08:18:35.796Z,5.80
2022-08-27T08:21:08.157Z,5.63
2022-08-27T08:23:36.293Z,5.40
2022-08-27T08:26:03.671Z,5.38
2022-08-27T08:28:30.835Z,4.97
2022-08-27T08:30:58.457Z,4.97
2022-08-27T08:33:26.133Z,5.10
2022-08-27T08:35:53.478Z,5.05
2022-08-27T08:38:22.029Z,4.97
2022-08-27T08:40:51.664Z,4.75
2022-08-27T08:43:29.002Z,4.70
2022-08-27T08:46:00.405Z,4.53
2022-08-27T08:48:30.799Z,6.55
2022-08-27T08:51:03.403Z,8.68
2022-08-27T08:53:42.990Z,7.15
2022-08-27T08:56:17.343Z,6.60
2022-08-27T08:58:47.896Z,5.70
2022-08-27T09:01:18.076Z,5.85
2022-08-27T09:03:51.621Z,5.32
2022-08-27T09:06:26.465Z,5.65
2022-08-27T09:08:54.982Z,4.80
2022-08-27T09:11:28.371Z,5.18
2022-08-27T09:13:59.875Z,5.55
2022-08-27T09:16:27.876Z,5.10
2022-08-27T09:18:55.541Z,5.28
2022-08-27T09:21:33.375Z,5.85
2022-08-27T09:24:11.342Z,6.30
2022-08-27T09:26:40.406Z,6.50
2022-08-27T09:29:10.694Z,6.70
2022-08-27T09:31:37.913Z,8.30
2022-08-27T09:34:05.492Z,8.23
2022-08-27T09:36:32.648Z,6.82
2022-08-27T09:39:04.789Z,7.15
2022-08-27T09:41:42.638Z,6.82
2022-08-27T09:44:12.140Z,8.10
2022-08-27T09:46:39.551Z,6.97
2022-08-27T09:49:10.451Z,8.38
2022-08-27T09:51:40.808Z,6.97
2022-08-27T09:54:07.950Z,6.47
2022-08-27T09:56:39.054Z,6.63
2022-08-27T09:59:09.348Z,7.20
2022-08-27T10:01:49.162Z,6.68
2022-08-27T10:04:24.249Z,7.20
2022-08-27T10:06:51.893Z,7.18
2022-08-27T10:09:26.259Z,6.97
2022-08-27T10:12:06.414Z,7.78
2022-08-27T10:14:40.249Z,6.78
2022-08-27T10:19:52.320Z,6.03
2022-08-27T10:22:32.815Z,5.80
2022-08-27T10:25:15.234Z,6.68
2022-08-27T10:27:51.336Z,6.85
2022-08-27T10:30:20.722Z,6.93
2022-08-27T10:33:03.576Z,6.30
2022-08-27T10:35:46.862Z,7.07
2022-08-27T10:38:24.730Z,6.35
2022-08-27T10:40:55.562Z,6.18
2022-08-27T10:43:48.060Z,6.65
2022-08-27T10:46:36.811Z,6.10
2022-08-27T10:49:08.902Z,4.78
2022-08-27T10:51:44.855Z,5.28
2022-08-27T10:54:31.028Z,5.18
2022-08-27T10:57:26.224Z,4.30
2022-08-27T11:00:01.308Z,4.53
2022-08-27T11:02:34.101Z,4.53
2022-08-27T11:05:06.245Z,4.13
2022-08-27T11:07:37.015Z,3.90
2022-08-27T11:10:08.151Z,3.90
2022-08-27T11:12:38.546Z,4.03
2022-08-27T11:15:13.112Z,3.80
2022-08-27T11:17:45.298Z,4.10
2022-08-27T11:20:16.743Z,3.58
2022-08-27T11:22:49.388Z,4.90
2022-08-27T11:25:32.344Z,4.28
2022-08-27T11:28:02.620Z,4.28
2022-08-27T11:30:43.423Z,3.67
2022-08-27T11:33:18.105Z,3.85
2022-08-27T11:36:02.717Z,3.97
2022-08-27T11:38:53.343Z,4.03
2022-08-27T11:41:45.814Z,3.85
2022-08-27T11:44:14.896Z,3.60
2022-08-27T11:46:46.994Z,4.00
2022-08-27T11:49:25.919Z,4.15
2022-08-27T11:51:58.905Z,4.38
2022-08-27T11:54:42.681Z,3.93
2022-08-27T11:57:14.772Z,6.07
2022-08-27T11:59:42.274Z,4.75
2022-08-27T12:02:23.145Z,4.22
2022-08-27T12:04:50.323Z,4.25
2022-08-27T12:07:32.922Z,4.55
2022-08-27T12:10:31.694Z,3.63
2022-08-27T12:13:11.976Z,3.90
2022-08-27T12:15:50.399Z,3.33
2022-08-27T12:18:39.133Z,3.58
2022-08-27T12:21:16.637Z,3.83
2022-08-27T12:24:02.530Z,3.83
2022-08-27T12:26:32.846Z,3.75
2022-08-27T12:29:24.244Z,3.63
2022-08-27T12:32:00.479Z,3.55
2022-08-27T12:34:30.826Z,3.85
2022-08-27T12:36:57.993Z,3.78
2022-08-27T12:39:33.978Z,3.97
2022-08-27T12:42:01.202Z,4.10
2022-08-27T12:44:30.923Z,3.38
2022-08-27T12:47:01.433Z,3.60
2022-08-27T12:49:38.862Z,3.70
2022-08-27T12:52:32.830Z,3.67
2022-08-27T12:55:13.863Z,3.85
2022-08-27T12:57:49.109Z,3.60
2022-08-27T13:00:18.503Z,4.13
2022-08-27T13:03:09.381Z,3.80
2022-08-27T13:05:40.425Z,4.38
2022-08-27T13:08:18.640Z,4.07
2022-08-27T13:10:45.783Z,3.90
2022-08-27T13:13:16.270Z,4.40
2022-08-27T13:15:47.166Z,3.85
2022-08-27T13:18:15.605Z,4.40
2022-08-27T13:20:52.701Z,4.30
2022-08-27T13:23:22.234Z,4.70
2022-08-27T13:25:57.514Z,4.57
2022-08-27T13:28:27.872Z,4.60
2022-08-27T13:30:56.106Z,4.50
2022-08-27T13:33:25.619Z,5.10
2022-08-27T13:35:54.582Z,4.82
2022-08-27T13:38:22.534Z,4.50
2022-08-27T13:40:57.533Z,4.40
2022-08-27T13:43:35.289Z,4.72
2022-08-27T13:46:07.052Z,4.72
2022-08-27T13:48:34.677Z,5.00
2022-08-27T13:51:03.306Z,4.70
2022-08-27T13:53:31.982Z,4.28
2022-08-27T13:55:59.330Z,4.72
2022-08-27T13:58:28.669Z,4.53
2022-08-27T14:01:07.556Z,4.55
2022-08-27T14:03:36.963Z,4.43
2022-08-27T14:06:05.900Z,4.75
2022-08-27T14:08:35.652Z,4.82
2022-08-27T14:11:06.842Z,4.13
2022-08-27T14:13:40.190Z,4.28
2022-08-27T14:16:22.330Z,5.05
2022-08-27T14:18:59.820Z,4.05
2022-08-27T14:21:28.391Z,4.47
2022-08-27T14:23:56.087Z,4.22
2022-08-27T14:26:24.362Z,4.18
2022-08-27T14:28:51.498Z,4.35
2022-08-27T14:31:18.674Z,4.38
2022-08-27T14:33:45.856Z,4.32
2022-08-27T14:36:14.395Z,4.40
2022-08-27T14:38:45.502Z,4.03
2022-08-27T14:41:12.703Z,4.40
2022-08-27T14:43:41.527Z,4.45
2022-08-27T14:46:22.540Z,4.05
2022-08-27T14:48:51.713Z,4.10
2022-08-27T14:51:24.048Z,4.13
2022-08-27T14:53:53.155Z,4.60
2022-08-27T14:56:21.423Z,4.22
2022-08-27T14:58:49.170Z,4.65
2022-08-27T15:01:17.162Z,4.45
2022-08-27T15:03:47.089Z,6.43
2022-08-27T15:06:14.852Z,14.43
2022-08-27T15:08:42.557Z,8.20
2022-08-27T15:11:16.147Z,7.60
2022-08-27T15:13:43.857Z,5.72
2022-08-27T15:16:13.594Z,5.10
2022-08-27T15:18:40.753Z,4.75
2022-08-27T15:21:08.094Z,4.43
2022-08-27T15:23:35.255Z,4.70
2022-08-27T15:26:02.430Z,4.22
2022-08-27T15:28:30.968Z,4.68
2022-08-27T15:30:58.232Z,4.55
2022-08-27T15:33:25.659Z,4.50
2022-08-27T15:35:52.789Z,4.88
2022-08-27T15:38:19.959Z,4.22
2022-08-27T15:40:48.002Z,4.45
2022-08-27T15:43:16.722Z,4.97
2022-08-27T15:45:45.286Z,4.32
2022-08-27T15:48:12.630Z,4.18
2022-08-27T15:50:41.963Z,3.92
2022-08-27T15:53:10.098Z,3.80
2022-08-27T15:55:39.424Z,8.32
2022-08-27T15:58:07.569Z,6.45
2022-08-27T16:00:36.598Z,5.47
2022-08-27T16:03:08.343Z,4.32
2022-08-27T16:05:38.245Z,4.15
2022-08-27T16:08:06.119Z,4.32
2022-08-27T16:10:33.427Z,4.25
2022-08-27T16:13:00.766Z,3.55
2022-08-27T16:15:28.356Z,3.20
2022-08-27T16:17:58.564Z,3.58
2022-08-27T16:20:27.714Z,3.58
2022-08-27T16:22:54.867Z,3.30
2022-08-27T16:25:22.150Z,3.58
2022-08-27T16:27:49.614Z,3.75
2022-08-27T16:30:17.308Z,3.33
2022-08-27T16:32:46.610Z,3.92
2022-08-27T16:35:14.220Z,3.40
2022-08-27T16:37:42.821Z,3.05
2022-08-27T16:40:10.604Z,3.20
2022-08-27T16:42:41.688Z,3.25
2022-08-27T16:45:14.198Z,3.30
2022-08-27T16:47:41.676Z,3.45
2022-08-27T16:50:08.834Z,3.35
2022-08-27T16:52:36.206Z,3.20
2022-08-27T16:55:05.570Z,3.97
2022-08-27T16:57:32.714Z,3.67
2022-08-27T16:59:59.855Z,3.05
2022-08-27T17:02:30.543Z,3.42
2022-08-27T17:05:12.260Z,3.60
2022-08-27T17:07:47.822Z,3.35
2022-08-27T17:10:18.210Z,3.67
2022-08-27T17:12:45.874Z,3.63
2022-08-27T17:15:14.315Z,3.40
2022-08-27T17:17:41.863Z,3.00
2022-08-27T17:20:09.785Z,3.40
2022-08-27T17:22:37.141Z,2.80
2022-08-27T17:25:05.044Z,2.92
2022-08-27T17:27:33.610Z,2.67
2022-08-27T17:30:00.853Z,2.97
2022-08-27T17:32:31.329Z,2.80
2022-08-27T17:35:02.325Z,2.70
2022-08-27T17:39:59.572Z,2.53
2022-08-27T17:42:26.789Z,14.77
2022-08-27T17:44:55.296Z,27.73
2022-08-27T17:47:22.448Z,16.27
2022-08-27T17:49:49.643Z,14.10
2022-08-27T17:52:16.859Z,10.68
2022-08-27T17:54:46.690Z,8.10
2022-08-27T17:57:17.541Z,4.68
2022-08-27T17:59:44.951Z,4.22
2022-08-27T18:02:18.584Z,3.60
2022-08-27T18:04:45.859Z,2.83
2022-08-27T18:07:13.335Z,2.95
2022-08-27T18:09:40.772Z,2.85
2022-08-27T18:12:08.947Z,2.60
2022-08-27T18:14:36.152Z,2.45
2022-08-27T18:17:03.411Z,2.15
2022-08-27T18:19:32.365Z,2.03
2022-08-27T18:21:59.642Z,2.03
2022-08-27T18:24:27.695Z,1.70
2022-08-27T18:26:54.864Z,1.83
2022-08-27T18:29:22.131Z,1.80
2022-08-27T18:31:49.380Z,1.90
2022-08-27T18:34:20.552Z,1.60
2022-08-27T18:36:49.584Z,1.80
2022-08-27T18:39:16.723Z,1.92
2022-08-27T18:41:43.883Z,1.77
2022-08-27T18:44:17.348Z,2.03
2022-08-27T18:46:45.768Z,1.88
2022-08-27T18:49:12.936Z,2.10
2022-08-27T18:51:42.343Z,2.10
2022-08-27T18:54:11.158Z,2.00
2022-08-27T18:56:38.311Z,2.20
2022-08-27T18:59:05.475Z,2.03
2022-08-27T19:01:32.995Z,2.00
2022-08-27T19:04:00.687Z,2.05
2022-08-27T19:06:27.857Z,1.85
2022-08-27T19:08:55.015Z,1.80
2022-08-27T19:11:23.529Z,1.77
2022-08-27T19:13:50.997Z,2.00
2022-08-27T19:16:21.104Z,2.00
2022-08-27T19:18:48.308Z,1.83
2022-08-27T19:21:15.513Z,2.17
2022-08-27T19:23:42.979Z,2.55
2022-08-27T19:26:15.537Z,7.60
2022-08-27T19:28:44.114Z,10.32
2022-08-27T19:31:13.029Z,15.65
2022-08-27T19:33:40.984Z,10.13
2022-08-27T19:36:13.725Z,7.03
2022-08-27T19:38:44.612Z,5.50
2022-08-27T19:41:12.979Z,4.10
2022-08-27T19:43:41.022Z,3.33
2022-08-27T19:46:16.438Z,2.95
2022-08-27T19:48:43.635Z,2.83
2022-08-27T19:51:11.161Z,2.75
2022-08-27T19:53:38.298Z,2.50
2022-08-27T19:56:07.429Z,2.42
2022-08-27T19:58:34.621Z,2.10
2022-08-27T20:01:01.995Z,2.22
2022-08-27T20:03:30.549Z,2.20
2022-08-27T20:05:57.705Z,1.92
2022-08-27T20:08:24.873Z,3.00
2022-08-27T20:10:52.036Z,2.40
2022-08-27T20:13:19.680Z,2.10
2022-08-27T20:15:48.064Z,2.30
2022-08-27T20:18:15.328Z,2.38
2022-08-27T20:20:43.892Z,2.30
2022-08-27T20:23:11.338Z,2.25
2022-08-27T20:25:38.536Z,2.00
2022-08-27T20:28:28.188Z,1.90
2022-08-27T20:30:53.280Z,2.00
2022-08-27T20:33:20.444Z,1.80
2022-08-27T20:35:49.134Z,2.33
2022-08-27T20:38:16.243Z,2.20
2022-08-27T20:40:43.391Z,2.17
2022-08-27T20:43:10.528Z,2.08
2022-08-27T20:45:37.723Z,2.22
2022-08-27T20:48:05.061Z,2.10
2022-08-27T20:50:32.544Z,2.10
2022-08-27T20:53:01.112Z,2.25
2022-08-27T20:55:28.787Z,2.05
2022-08-27T20:57:55.932Z,2.20
2022-08-27T21:00:23.248Z,2.40
2022-08-27T21:02:50.411Z,2.28
2022-08-27T21:05:18.555Z,2.08
2022-08-27T21:07:45.707Z,2.20
2022-08-27T21:10:14.894Z,2.15
2022-08-27T21:12:42.047Z,2.40
2022-08-27T21:15:09.581Z,2.65
2022-08-27T21:17:37.321Z,2.30
2022-08-27T21:20:05.699Z,2.63
2022-08-27T21:22:32.839Z,5.15
2022-08-27T21:24:59.980Z,5.80
2022-08-27T21:27:28.593Z,7.07
2022-08-27T21:29:55.745Z,5.38
2022-08-27T21:32:22.886Z,4.95
2022-08-27T21:34:50.242Z,5.28
2022-08-27T21:37:17.828Z,3.90
2022-08-27T21:39:45.070Z,3.90
2022-08-27T21:42:13.931Z,3.92
2022-08-27T21:44:43.002Z,4.22
2022-08-27T21:47:10.285Z,4.25
2022-08-27T21:49:37.417Z,4.10
2022-08-27T21:52:06.233Z,3.83
2022-08-27T21:54:35.296Z,3.97
2022-08-27T21:57:03.213Z,3.95
2022-08-27T21:59:30.626Z,4.03
2022-08-27T22:02:01.075Z,3.55
2022-08-27T22:04:29.817Z,3.30
2022-08-27T22:06:59.095Z,4.00
2022-08-27T22:09:26.866Z,4.05
2022-08-27T22:11:54.269Z,3.90
2022-08-27T22:14:21.458Z,3.97
2022-08-27T22:16:48.725Z,3.75
2022-08-27T22:19:17.812Z,4.10
2022-08-27T22:21:45.629Z,3.67
2022-08-27T22:24:13.241Z,3.47
2022-08-27T22:26:40.691Z,3.50
2022-08-27T22:29:07.923Z,4.30
2022-08-27T22:31:35.169Z,3.55
2022-08-27T22:34:02.411Z,4.10
2022-08-27T22:36:31.487Z,3.72
2022-08-27T22:38:59.829Z,3.75
2022-08-27T22:41:32.673Z,4.00
2022-08-27T22:44:00.170Z,4.25
2022-08-27T22:46:27.806Z,4.00
2022-08-27T22:48:55.214Z,3.90
2022-08-27T22:51:22.446Z,4.20
2022-08-27T22:53:51.056Z,4.07
2022-08-27T22:56:18.230Z,4.13
2022-08-27T22:58:46.004Z,4.07
2022-08-27T23:01:13.767Z,4.05
2022-08-27T23:03:40.962Z,4.03
2022-08-27T23:06:08.170Z,4.53
2022-08-27T23:08:35.370Z,3.80
2022-08-27T23:11:04.231Z,4.20
2022-08-27T23:13:31.983Z,4.10
2022-08-27T23:15:59.720Z,4.50
2022-08-27T23:18:27.416Z,4.15
2022-08-27T23:20:54.570Z,4.40
2022-08-27T23:23:22.307Z,4.03
2022-08-27T23:25:52.974Z,4.82
2022-08-27T23:28:21.782Z,4.15
2022-08-27T23:30:49.454Z,4.15
2022-08-27T23:33:16.770Z,4.47
2022-08-27T23:35:43.974Z,4.72
2022-08-27T23:38:11.400Z,4.00
2022-08-27T23:40:40.479Z,4.25
2022-08-27T23:43:07.695Z,4.45
2022-08-27T23:45:40.475Z,4.32
2022-08-27T23:48:08.242Z,4.25
2022-08-27T23:50:35.478Z,3.90
2022-08-27T23:53:03.559Z,4.10
2022-08-27T23:55:30.902Z,4.00
2022-08-27T23:57:58.024Z,4.05
